createdAt,value
2023-06-07T00:00:45.495Z,17.23
2023-06-07T00:03:35.342Z,16.27
2023-06-07T00:06:04.687Z,15.82
2023-06-07T00:08:33.296Z,15.68
2023-06-07T00:11:02.282Z,14.75
2023-06-07T00:13:31.264Z,14.45
2023-06-07T00:15:59.908Z,14.02
2023-06-07T00:18:29.645Z,14.18
2023-06-07T00:20:59.670Z,14.38
2023-06-07T00:23:31.686Z,14.32
2023-06-07T00:26:02.465Z,14.02
2023-06-07T00:28:31.083Z,14.00
2023-06-07T00:30:59.869Z,13.85
2023-06-07T00:33:28.210Z,13.95
2023-06-07T00:36:01.784Z,14.82
2023-06-07T00:38:30.453Z,13.65
2023-06-07T00:41:02.036Z,13.52
2023-06-07T00:43:30.459Z,13.65
2023-06-07T00:45:59.441Z,13.48
2023-06-07T00:48:29.171Z,13.55
2023-06-07T00:50:59.936Z,13.25
2023-06-07T00:53:29.074Z,13.95
2023-06-07T00:55:58.429Z,13.23
2023-06-07T00:58:27.066Z,13.90
2023-06-07T01:00:56.108Z,13.05
2023-06-07T01:03:25.339Z,13.00
2023-06-07T01:05:54.456Z,13.05
2023-06-07T01:08:23.136Z,12.93
2023-06-07T01:10:52.523Z,12.93
2023-06-07T01:13:22.969Z,13.85
2023-06-07T01:15:52.528Z,13.57
2023-06-07T01:18:21.274Z,13.18
2023-06-07T01:20:56.842Z,13.23
2023-06-07T01:23:38.297Z,13.40
2023-06-07T01:26:07.250Z,12.48
2023-06-07T01:28:35.766Z,12.48
2023-06-07T01:31:04.726Z,13.02
2023-06-07T01:33:34.709Z,13.32
2023-06-07T01:36:07.122Z,13.18
2023-06-07T01:38:36.143Z,13.50
2023-06-07T01:41:05.208Z,13.23
2023-06-07T01:43:36.598Z,13.82
2023-06-07T01:46:06.758Z,13.38
2023-06-07T01:48:36.512Z,13.15
2023-06-07T01:51:05.546Z,13.65
2023-06-07T01:53:35.716Z,13.65
2023-06-07T01:56:22.486Z,13.70
2023-06-07T01:59:23.672Z,13.38
2023-06-07T02:02:07.752Z,13.63
2023-06-07T02:04:42.654Z,13.15
2023-06-07T02:07:23.718Z,13.27
2023-06-07T02:09:53.655Z,13.52
2023-06-07T02:12:23.826Z,12.77
2023-06-07T02:14:54.046Z,13.50
2023-06-07T02:17:24.594Z,13.65
2023-06-07T02:19:53.863Z,14.30
2023-06-07T02:22:30.597Z,13.73
2023-06-07T02:24:59.458Z,13.60
2023-06-07T02:27:30.274Z,13.60
2023-06-07T02:29:59.773Z,13.48
2023-06-07T02:32:30.701Z,14.90
2023-06-07T02:34:59.136Z,14.38
2023-06-07T02:37:29.851Z,13.77
2023-06-07T02:40:01.484Z,15.00
2023-06-07T02:42:30.781Z,15.00
2023-06-07T02:45:03.068Z,15.25
2023-06-07T02:47:32.657Z,14.65
2023-06-07T02:50:03.970Z,14.30
2023-06-07T02:52:40.726Z,14.45
2023-06-07T02:55:11.231Z,14.93
2023-06-07T02:57:40.001Z,14.98
2023-06-07T03:00:14.789Z,14.20
2023-06-07T03:02:52.799Z,14.18
2023-06-07T03:05:21.433Z,15.27
2023-06-07T03:07:54.066Z,14.45
2023-06-07T03:10:24.295Z,17.10
2023-06-07T03:12:54.075Z,15.68
2023-06-07T03:15:23.029Z,16.15
2023-06-07T03:17:55.204Z,15.23
2023-06-07T03:20:25.155Z,16.17
2023-06-07T03:22:57.413Z,16.00
2023-06-07T03:25:25.780Z,15.80
2023-06-07T03:27:56.669Z,15.95
2023-06-07T03:30:36.301Z,16.42
2023-06-07T03:33:05.142Z,15.57
2023-06-07T03:35:36.321Z,15.90
2023-06-07T03:38:07.352Z,17.70
2023-06-07T03:40:35.768Z,16.30
2023-06-07T03:43:05.186Z,16.20
2023-06-07T03:45:33.785Z,15.57
2023-06-07T03:48:10.848Z,15.80
2023-06-07T03:50:39.916Z,15.93
2023-06-07T03:53:12.533Z,17.20
2023-06-07T03:55:44.380Z,16.60
2023-06-07T03:58:13.620Z,16.77
2023-06-07T04:00:42.061Z,16.42
2023-06-07T04:03:11.925Z,16.90
2023-06-07T04:05:40.662Z,18.80
2023-06-07T04:08:11.135Z,18.08
2023-06-07T04:10:42.073Z,17.42
2023-06-07T04:13:10.804Z,18.02
2023-06-07T04:15:39.976Z,18.38
2023-06-07T04:18:09.291Z,17.95
2023-06-07T04:20:43.869Z,18.98
2023-06-07T04:23:16.249Z,18.83
2023-06-07T04:25:45.306Z,18.75
2023-06-07T04:28:14.807Z,17.90
2023-06-07T04:30:43.860Z,18.85
2023-06-07T04:33:18.565Z,18.83
2023-06-07T04:35:54.162Z,19.90
2023-06-07T04:38:23.816Z,18.63
2023-06-07T04:41:02.296Z,18.40
2023-06-07T04:43:39.180Z,18.83
2023-06-07T04:46:12.161Z,17.60
2023-06-07T04:48:42.877Z,17.20
2023-06-07T04:51:14.713Z,17.23
2023-06-07T04:53:46.478Z,18.77
2023-06-07T04:56:27.278Z,18.10
2023-06-07T04:58:56.887Z,17.45
2023-06-07T05:01:29.755Z,17.40
2023-06-07T05:04:03.720Z,17.10
2023-06-07T05:06:41.024Z,14.80
2023-06-07T05:09:11.395Z,10.95
2023-06-07T05:11:39.741Z,13.02
2023-06-07T05:14:08.581Z,11.63
2023-06-07T05:16:37.090Z,10.57
2023-06-07T05:19:07.237Z,12.27
2023-06-07T05:21:39.156Z,13.77
2023-06-07T05:24:08.962Z,11.48
2023-06-07T05:26:37.302Z,11.50
2023-06-07T05:29:06.169Z,9.88
2023-06-07T05:31:35.421Z,10.02
2023-06-07T05:34:04.470Z,9.93
2023-06-07T05:36:36.277Z,10.18
2023-06-07T05:39:06.719Z,9.90
2023-06-07T05:41:37.912Z,9.75
2023-06-07T05:44:06.722Z,10.43
2023-06-07T05:46:35.125Z,10.05
2023-06-07T05:49:04.319Z,10.80
2023-06-07T05:51:32.799Z,10.18
2023-06-07T05:54:01.468Z,9.60
2023-06-07T05:56:29.844Z,9.55
2023-06-07T05:58:58.771Z,10.48
2023-06-07T06:01:27.759Z,9.95
2023-06-07T06:03:56.495Z,8.70
2023-06-07T06:06:25.318Z,9.10
2023-06-07T06:08:53.905Z,9.45
2023-06-07T06:11:22.162Z,9.15
2023-06-07T06:13:51.536Z,8.93
2023-06-07T06:16:19.986Z,8.10
2023-06-07T06:18:49.171Z,9.07
2023-06-07T06:21:17.506Z,9.32
2023-06-07T06:23:46.226Z,9.48
2023-06-07T06:26:14.473Z,9.07
2023-06-07T06:28:43.395Z,9.48
2023-06-07T06:31:12.638Z,9.55
2023-06-07T06:33:41.578Z,8.55
2023-06-07T06:36:09.844Z,8.82
2023-06-07T06:38:38.429Z,8.02
2023-06-07T06:41:08.465Z,8.85
2023-06-07T06:43:37.468Z,8.60
2023-06-07T06:46:07.325Z,8.40
2023-06-07T06:48:38.348Z,8.02
2023-06-07T06:51:06.650Z,7.78
2023-06-07T06:53:35.362Z,8.05
2023-06-07T06:56:04.539Z,7.95
2023-06-07T06:58:36.412Z,8.30
2023-06-07T07:01:05.825Z,8.20
2023-06-07T07:03:34.510Z,7.93
2023-06-07T07:06:02.952Z,9.45
2023-06-07T07:08:33.893Z,7.85
2023-06-07T07:11:02.460Z,7.30
2023-06-07T07:18:53.188Z,7.45
2023-06-07T07:21:21.844Z,7.35
2023-06-07T07:23:50.214Z,7.75
2023-06-07T07:26:18.828Z,6.72
2023-06-07T07:28:47.549Z,6.20
2023-06-07T07:31:16.214Z,6.82
2023-06-07T07:33:44.935Z,6.47
2023-06-07T07:36:13.550Z,6.72
2023-06-07T07:38:42.289Z,6.55
2023-06-07T07:41:11.028Z,6.22
2023-06-07T07:43:39.443Z,5.70
2023-06-07T07:46:08.295Z,6.00
2023-06-07T07:48:36.940Z,5.28
2023-06-07T07:51:06.187Z,6.30
2023-06-07T07:53:34.889Z,4.45
2023-06-07T07:56:03.596Z,4.53
2023-06-07T07:58:32.947Z,4.70
2023-06-07T08:01:02.775Z,5.07
2023-06-07T08:03:31.197Z,5.68
2023-06-07T08:06:00.967Z,4.60
2023-06-07T08:08:29.332Z,5.00
2023-06-07T08:10:58.661Z,4.30
2023-06-07T08:13:27.045Z,4.85
2023-06-07T08:15:56.166Z,5.95
2023-06-07T08:18:24.609Z,5.32
2023-06-07T08:20:53.464Z,4.53
2023-06-07T08:23:21.757Z,4.20
2023-06-07T08:25:50.344Z,4.50
2023-06-07T08:28:19.655Z,4.00
2023-06-07T08:30:48.930Z,3.47
2023-06-07T08:33:17.516Z,4.13
2023-06-07T08:35:46.265Z,6.30
2023-06-07T08:38:14.644Z,4.00
2023-06-07T08:40:43.326Z,3.70
2023-06-07T08:43:11.619Z,3.35
2023-06-07T08:45:42.584Z,3.80
2023-06-07T08:48:13.752Z,3.70
2023-06-07T08:50:47.851Z,3.80
2023-06-07T08:53:27.952Z,3.25
2023-06-07T08:55:59.081Z,3.60
2023-06-07T08:58:28.492Z,3.40
2023-06-07T09:01:00.061Z,6.07
2023-06-07T09:03:28.919Z,3.20
2023-06-07T09:05:57.723Z,3.38
2023-06-07T09:08:26.061Z,3.60
2023-06-07T09:10:55.146Z,3.50
2023-06-07T09:13:23.876Z,4.28
2023-06-07T09:15:55.232Z,3.33
2023-06-07T09:18:23.524Z,3.75
2023-06-07T09:20:52.177Z,3.45
2023-06-07T09:23:21.180Z,3.67
2023-06-07T09:25:54.973Z,3.63
2023-06-07T09:28:23.349Z,3.30
2023-06-07T09:31:00.953Z,3.50
2023-06-07T09:33:36.721Z,3.70
2023-06-07T09:36:17.157Z,3.58
2023-06-07T09:38:46.664Z,4.10
2023-06-07T09:41:15.373Z,3.83
2023-06-07T09:43:48.451Z,3.47
2023-06-07T09:46:19.515Z,3.60
2023-06-07T09:48:52.349Z,3.97
2023-06-07T09:51:22.371Z,3.80
2023-06-07T09:53:55.656Z,3.65
2023-06-07T09:56:26.309Z,4.53
2023-06-07T09:59:21.086Z,3.60
2023-06-07T10:01:53.343Z,3.97
2023-06-07T10:04:21.927Z,4.07
2023-06-07T10:06:55.818Z,3.90
2023-06-07T10:09:25.516Z,3.72
2023-06-07T10:11:58.747Z,3.88
2023-06-07T10:14:31.383Z,4.15
2023-06-07T10:17:07.259Z,3.70
2023-06-07T10:19:44.319Z,4.32
2023-06-07T10:22:24.548Z,3.83
2023-06-07T10:25:05.615Z,3.85
2023-06-07T10:27:45.169Z,4.30
2023-06-07T10:30:14.696Z,3.60
2023-06-07T10:32:45.687Z,3.90
2023-06-07T10:35:16.680Z,4.00
2023-06-07T10:37:46.313Z,3.80
2023-06-07T10:40:16.318Z,3.70
2023-06-07T10:42:47.976Z,3.65
2023-06-07T10:45:20.773Z,3.75
2023-06-07T10:47:49.643Z,3.80
2023-06-07T10:50:32.998Z,4.28
2023-06-07T10:53:02.714Z,3.78
2023-06-07T10:55:33.161Z,3.67
2023-06-07T10:58:02.190Z,3.63
2023-06-07T11:00:32.584Z,3.97
2023-06-07T11:03:10.840Z,3.90
2023-06-07T11:05:55.004Z,3.85
2023-06-07T11:08:32.533Z,3.67
2023-06-07T11:11:02.520Z,4.35
2023-06-07T11:13:41.219Z,3.92
2023-06-07T11:16:24.888Z,3.45
2023-06-07T11:18:58.172Z,4.00
2023-06-07T11:21:29.673Z,4.10
2023-06-07T11:24:28.440Z,3.97
2023-06-07T11:26:57.738Z,7.40
2023-06-07T11:29:26.482Z,4.10
2023-06-07T11:32:00.134Z,3.70
2023-06-07T11:34:31.824Z,3.97
2023-06-07T11:39:36.362Z,3.90
2023-06-07T11:42:06.509Z,3.80
2023-06-07T11:44:36.175Z,4.93
2023-06-07T11:47:07.539Z,3.40
2023-06-07T11:49:39.924Z,4.30
2023-06-07T11:52:08.836Z,3.80
2023-06-07T11:54:43.285Z,3.67
2023-06-07T11:57:12.333Z,4.07
2023-06-07T11:59:43.297Z,4.00
2023-06-07T12:02:14.140Z,3.70
2023-06-07T12:04:45.767Z,3.80
2023-06-07T12:07:21.473Z,3.60
2023-06-07T12:09:51.289Z,3.95
2023-06-07T12:12:19.754Z,3.80
2023-06-07T12:14:52.624Z,3.90
2023-06-07T12:17:21.944Z,3.45
2023-06-07T12:19:50.533Z,3.55
2023-06-07T12:22:19.008Z,4.32
2023-06-07T12:24:48.830Z,4.60
2023-06-07T12:27:17.787Z,5.70
2023-06-07T12:29:54.010Z,3.60
2023-06-07T12:32:23.149Z,3.70
2023-06-07T12:34:52.399Z,4.10
2023-06-07T12:37:20.778Z,3.65
2023-06-07T12:39:50.716Z,3.70
2023-06-07T12:42:19.193Z,3.85
2023-06-07T12:44:48.828Z,4.18
2023-06-07T12:47:17.393Z,4.18
2023-06-07T12:49:46.037Z,4.22
2023-06-07T12:52:14.417Z,4.25
2023-06-07T12:54:43.000Z,3.45
2023-06-07T12:57:11.426Z,3.58
2023-06-07T12:59:39.999Z,4.03
2023-06-07T13:02:09.058Z,6.20
2023-06-07T13:04:37.636Z,4.32
2023-06-07T13:07:06.040Z,3.90
2023-06-07T13:09:37.299Z,3.80
2023-06-07T13:12:08.790Z,3.88
2023-06-07T13:14:37.761Z,4.15
2023-06-07T13:17:06.528Z,3.80
2023-06-07T13:19:35.293Z,4.22
2023-06-07T13:22:05.111Z,4.10
2023-06-07T13:24:33.780Z,3.92
2023-06-07T13:27:02.116Z,4.85
2023-06-07T13:29:30.872Z,3.95
2023-06-07T13:31:59.239Z,4.78
2023-06-07T13:34:28.165Z,3.97
2023-06-07T13:36:58.766Z,4.10
2023-06-07T13:42:13.311Z,5.65
2023-06-07T13:44:42.123Z,3.92
2023-06-07T13:47:10.699Z,4.68
2023-06-07T13:52:32.701Z,3.65
2023-06-07T13:55:01.850Z,5.47
2023-06-07T13:57:30.194Z,4.13
2023-06-07T14:00:00.489Z,3.88
2023-06-07T14:02:54.604Z,4.43
2023-06-07T14:05:33.061Z,6.93
2023-06-07T14:08:03.040Z,3.65
2023-06-07T14:10:34.811Z,4.20
2023-06-07T14:15:56.233Z,4.25
2023-06-07T14:18:50.148Z,4.22
2023-06-07T14:21:22.026Z,4.50
2023-06-07T14:23:50.422Z,4.30
2023-06-07T14:26:19.211Z,6.60
2023-06-07T14:28:50.304Z,4.32
2023-06-07T14:31:22.039Z,4.55
2023-06-07T14:33:53.680Z,3.90
2023-06-07T14:36:26.142Z,4.18
2023-06-07T14:38:54.621Z,4.35
2023-06-07T14:41:23.522Z,4.25
2023-06-07T14:43:51.879Z,4.72
2023-06-07T14:46:27.629Z,4.18
2023-06-07T14:48:55.939Z,4.20
2023-06-07T14:51:27.346Z,4.00
2023-06-07T14:53:55.768Z,5.28
2023-06-07T14:56:33.777Z,4.38
2023-06-07T14:59:02.304Z,4.10
2023-06-07T15:01:32.940Z,4.15
2023-06-07T15:04:01.345Z,4.43
2023-06-07T15:06:32.523Z,4.40
2023-06-07T15:09:00.837Z,5.30
2023-06-07T15:11:38.551Z,4.60
2023-06-07T15:14:06.856Z,4.95
2023-06-07T15:16:35.764Z,4.28
2023-06-07T15:19:04.286Z,4.15
2023-06-07T15:21:32.976Z,5.00
2023-06-07T15:24:01.532Z,4.40
2023-06-07T15:26:30.438Z,5.63
2023-06-07T15:28:59.357Z,8.82
2023-06-07T15:31:28.681Z,4.75
2023-06-07T15:33:58.445Z,4.10
2023-06-07T15:36:29.742Z,4.57
2023-06-07T15:38:58.198Z,6.32
2023-06-07T15:41:27.929Z,4.82
2023-06-07T15:43:57.081Z,5.80
2023-06-07T15:46:39.474Z,5.03
2023-06-07T15:49:33.068Z,4.65
2023-06-07T15:52:14.902Z,6.00
2023-06-07T15:54:50.631Z,4.38
2023-06-07T15:57:19.254Z,4.32
2023-06-07T15:59:47.611Z,4.18
2023-06-07T16:02:19.626Z,3.85
2023-06-07T16:04:48.243Z,5.28
2023-06-07T16:07:17.084Z,4.72
2023-06-07T16:09:45.648Z,4.10
2023-06-07T16:12:14.361Z,4.18
2023-06-07T16:14:42.890Z,4.80
2023-06-07T16:17:11.768Z,3.95
2023-06-07T16:19:42.345Z,4.50
2023-06-07T16:22:11.736Z,4.20
2023-06-07T16:24:41.672Z,4.32
2023-06-07T16:29:43.310Z,4.60
2023-06-07T16:32:12.022Z,4.82
2023-06-07T16:34:40.469Z,4.43
2023-06-07T16:37:09.875Z,4.68
2023-06-07T16:39:39.306Z,4.93
2023-06-07T16:42:08.085Z,6.83
2023-06-07T16:44:36.507Z,5.00
2023-06-07T16:47:05.290Z,4.25
2023-06-07T16:49:34.772Z,4.40
2023-06-07T16:52:05.118Z,4.25
2023-06-07T16:54:33.517Z,4.23
2023-06-07T16:57:02.226Z,5.30
2023-06-07T16:59:30.603Z,4.45
2023-06-07T17:01:59.636Z,5.30
2023-06-07T17:04:28.225Z,4.30
2023-06-07T17:06:57.071Z,4.18
2023-06-07T17:09:27.796Z,4.40
2023-06-07T17:11:56.544Z,4.38
2023-06-07T17:14:24.908Z,4.10
2023-06-07T17:16:53.939Z,4.25
2023-06-07T17:19:25.721Z,4.10
2023-06-07T17:21:54.411Z,4.82
2023-06-07T17:24:22.846Z,4.20
2023-06-07T17:26:51.489Z,4.18
2023-06-07T17:29:29.179Z,4.30
2023-06-07T17:31:59.274Z,4.72
2023-06-07T17:34:27.958Z,4.00
2023-06-07T17:36:56.643Z,5.10
2023-06-07T17:39:25.170Z,4.68
2023-06-07T17:41:54.007Z,4.55
2023-06-07T17:44:23.973Z,5.80
2023-06-07T17:46:52.824Z,4.70
2023-06-07T17:49:24.146Z,4.47
2023-06-07T17:51:55.456Z,4.45
2023-06-07T17:54:25.239Z,4.60
2023-06-07T17:56:53.925Z,4.50
2023-06-07T17:59:25.851Z,4.50
2023-06-07T18:01:55.284Z,4.28
2023-06-07T18:04:25.744Z,4.50
2023-06-07T18:06:54.748Z,4.53
2023-06-07T18:09:23.195Z,4.65
2023-06-07T18:11:52.237Z,5.05
2023-06-07T18:14:22.572Z,5.20
2023-06-07T18:16:51.248Z,5.10
2023-06-07T18:19:20.830Z,4.72
2023-06-07T18:21:49.697Z,4.95
2023-06-07T18:24:18.202Z,5.40
2023-06-07T18:26:47.144Z,4.63
2023-06-07T18:29:17.379Z,5.90
2023-06-07T18:31:46.543Z,6.93
2023-06-07T18:34:17.616Z,6.13
2023-06-07T18:36:50.565Z,5.15
2023-06-07T18:39:19.728Z,5.78
2023-06-07T18:41:48.874Z,5.32
2023-06-07T18:44:17.266Z,6.00
2023-06-07T18:46:45.994Z,5.50
2023-06-07T18:49:14.605Z,5.63
2023-06-07T18:51:43.370Z,6.50
2023-06-07T18:54:11.646Z,6.00
2023-06-07T18:56:41.623Z,6.55
2023-06-07T18:59:10.104Z,6.60
2023-06-07T19:01:50.795Z,6.93
2023-06-07T19:04:20.113Z,7.30
2023-06-07T19:06:51.570Z,8.73
2023-06-07T19:09:20.276Z,8.80
2023-06-07T19:11:48.940Z,6.95
2023-06-07T19:14:19.358Z,7.20
2023-06-07T19:16:48.247Z,7.95
2023-06-07T19:19:16.636Z,8.88
2023-06-07T19:21:45.899Z,6.65
2023-06-07T19:24:34.608Z,6.20
2023-06-07T19:27:04.509Z,5.68
2023-06-07T19:29:32.850Z,8.85
2023-06-07T19:32:02.798Z,6.00
2023-06-07T19:34:31.260Z,6.45
2023-06-07T19:37:00.216Z,6.03
2023-06-07T19:39:28.631Z,5.82
2023-06-07T19:42:31.620Z,5.90
2023-06-07T19:45:04.168Z,5.60
2023-06-07T19:47:33.376Z,5.78
2023-06-07T19:50:01.976Z,5.68
2023-06-07T19:52:31.987Z,6.20
2023-06-07T19:55:00.373Z,6.50
2023-06-07T19:57:59.656Z,5.72
2023-06-07T20:00:28.636Z,6.13
2023-06-07T20:02:57.313Z,5.25
2023-06-07T20:05:25.932Z,5.03
2023-06-07T20:07:54.826Z,5.30
2023-06-07T20:10:23.715Z,5.70
2023-06-07T20:12:53.533Z,5.85
2023-06-07T20:15:21.973Z,5.05
2023-06-07T20:17:50.835Z,4.90
2023-06-07T20:20:19.356Z,6.45
2023-06-07T20:22:51.076Z,5.53
2023-06-07T20:25:19.416Z,5.20
2023-06-07T20:27:49.441Z,5.55
2023-06-07T20:30:18.179Z,5.05
2023-06-07T20:32:47.550Z,6.05
2023-06-07T20:35:16.582Z,5.75
2023-06-07T20:37:44.839Z,6.40
2023-06-07T20:40:13.525Z,5.50
2023-06-07T20:42:41.761Z,6.10
2023-06-07T20:45:28.745Z,5.40
2023-06-07T20:47:57.796Z,5.93
2023-06-07T20:50:26.404Z,5.30
2023-06-07T20:52:55.667Z,5.38
2023-06-07T20:55:24.054Z,5.50
2023-06-07T20:57:57.104Z,6.50
2023-06-07T21:00:27.258Z,5.88
2023-06-07T21:02:57.497Z,5.43
2023-06-07T21:05:28.013Z,5.53
2023-06-07T21:07:56.868Z,6.50
2023-06-07T21:10:25.692Z,6.57
2023-06-07T21:13:04.423Z,6.95
2023-06-07T21:15:32.767Z,6.00
2023-06-07T21:18:02.862Z,7.78
2023-06-07T21:20:31.522Z,8.88
2023-06-07T21:23:00.282Z,8.38
2023-06-07T21:25:29.678Z,7.82
2023-06-07T21:28:00.495Z,11.07
2023-06-07T21:30:32.325Z,7.97
2023-06-07T21:33:29.191Z,8.90
2023-06-07T21:36:23.271Z,8.30
2023-06-07T21:38:53.679Z,8.07
2023-06-07T21:41:30.650Z,7.90
2023-06-07T21:43:59.453Z,7.90
2023-06-07T21:46:37.457Z,8.30
2023-06-07T21:49:09.808Z,8.27
2023-06-07T21:51:52.560Z,8.70
2023-06-07T21:54:30.286Z,7.60
2023-06-07T21:56:58.869Z,7.30
2023-06-07T21:59:28.569Z,7.43
2023-06-07T22:02:08.404Z,8.70
2023-06-07T22:05:11.613Z,9.70
2023-06-07T22:07:40.323Z,12.25
2023-06-07T22:10:35.150Z,11.85
2023-06-07T22:13:23.414Z,12.02
2023-06-07T22:15:56.469Z,10.13
2023-06-07T22:18:49.868Z,10.32
2023-06-07T22:23:59.167Z,8.73
2023-06-07T22:26:34.669Z,9.68
2023-06-07T22:29:07.842Z,9.75
2023-06-07T22:31:38.040Z,10.48
2023-06-07T22:36:42.964Z,11.45
2023-06-07T22:39:17.585Z,9.77
2023-06-07T22:41:50.097Z,10.73
2023-06-07T22:44:45.645Z,9.80
2023-06-07T22:47:32.394Z,12.73
2023-06-07T22:50:11.403Z,11.55
2023-06-07T22:52:40.057Z,9.15
2023-06-07T22:55:14.266Z,8.68
2023-06-07T22:57:43.663Z,9.27
2023-06-07T23:00:26.067Z,9.57
2023-06-07T23:02:55.131Z,7.72
2023-06-07T23:05:23.722Z,7.53
2023-06-07T23:07:54.131Z,7.85
2023-06-07T23:10:35.385Z,8.43
2023-06-07T23:13:11.294Z,8.40
2023-06-07T23:15:43.714Z,8.10
2023-06-07T23:18:18.707Z,8.55
2023-06-07T23:20:50.310Z,9.35
2023-06-07T23:25:55.212Z,9.00
2023-06-07T23:28:23.908Z,8.35
2023-06-07T23:30:52.211Z,8.88
2023-06-07T23:33:23.768Z,8.68
2023-06-07T23:35:52.434Z,8.75
2023-06-07T23:38:23.582Z,9.23
2023-06-07T23:40:52.038Z,9.00
2023-06-07T23:43:20.776Z,8.93
2023-06-07T23:45:49.798Z,9.68
2023-06-07T23:48:19.785Z,10.15
2023-06-07T23:50:51.285Z,10.52
2023-06-07T23:53:22.679Z,9.32
2023-06-07T23:55:51.004Z,9.80
2023-06-07T23:58:19.794Z,9.07
